createdAt,value
2023-03-19T00:01:56.010Z,36.28
2023-03-19T00:04:24.523Z,36.32
2023-03-19T00:06:51.382Z,36.50
2023-03-19T00:09:19.102Z,36.68
2023-03-19T00:11:46.074Z,36.86
2023-03-19T00:14:13.250Z,36.68
2023-03-19T00:16:40.265Z,36.44
2023-03-19T00:19:07.400Z,36.83
2023-03-19T00:21:34.324Z,36.70
2023-03-19T00:24:02.759Z,36.57
2023-03-19T00:26:30.184Z,36.66
2023-03-19T00:29:00.589Z,36.80
2023-03-19T00:31:28.268Z,36.65
2023-03-19T00:33:58.077Z,36.67
2023-03-19T00:36:25.961Z,36.82
2023-03-19T00:38:53.059Z,36.89
2023-03-19T00:41:20.754Z,36.73
2023-03-19T00:43:47.816Z,37.12
2023-03-19T00:46:14.688Z,36.73
2023-03-19T00:48:41.792Z,36.71
2023-03-19T00:51:09.586Z,36.99
2023-03-19T00:53:43.053Z,37.26
2023-03-19T00:56:11.475Z,37.10
2023-03-19T00:58:38.915Z,37.12
2023-03-19T01:01:06.100Z,37.06
2023-03-19T01:03:33.189Z,37.21
2023-03-19T01:05:59.957Z,37.02
2023-03-19T01:08:27.400Z,37.22
2023-03-19T01:10:54.223Z,37.26
2023-03-19T01:13:21.327Z,37.20
2023-03-19T01:15:51.937Z,37.36
2023-03-19T01:18:19.045Z,37.58
2023-03-19T01:20:45.777Z,37.28
2023-03-19T01:23:12.814Z,37.49
2023-03-19T01:25:39.625Z,37.07
2023-03-19T01:28:07.655Z,37.38
2023-03-19T01:30:34.826Z,37.30
2023-03-19T01:33:02.150Z,37.50
2023-03-19T01:35:28.990Z,37.31
2023-03-19T01:37:56.182Z,37.26
2023-03-19T01:40:23.601Z,37.63
2023-03-19T01:42:57.444Z,37.78
2023-03-19T01:45:35.188Z,37.05
2023-03-19T01:48:02.425Z,37.47
2023-03-19T01:50:41.920Z,37.58
2023-03-19T01:53:12.553Z,37.72
2023-03-19T01:55:39.852Z,37.50
2023-03-19T01:58:06.943Z,37.54
2023-03-19T02:00:35.214Z,37.68
2023-03-19T02:03:02.520Z,37.62
2023-03-19T02:05:29.394Z,37.47
2023-03-19T02:07:58.483Z,37.21
2023-03-19T02:10:25.255Z,37.57
2023-03-19T02:12:52.323Z,37.38
2023-03-19T02:15:19.194Z,37.71
2023-03-19T02:17:46.369Z,37.54
2023-03-19T02:20:46.591Z,37.58
2023-03-19T02:23:26.377Z,37.78
2023-03-19T02:26:12.750Z,37.91
2023-03-19T02:28:41.524Z,37.80
2023-03-19T02:31:08.503Z,37.72
2023-03-19T02:33:35.743Z,37.76
2023-03-19T02:36:03.853Z,37.89
2023-03-19T02:38:32.090Z,37.64
2023-03-19T02:41:09.397Z,37.68
2023-03-19T02:43:38.102Z,38.07
2023-03-19T02:46:07.469Z,38.01
2023-03-19T02:48:35.027Z,37.67
2023-03-19T02:51:01.749Z,37.78
2023-03-19T02:53:28.792Z,37.85
2023-03-19T02:55:55.668Z,37.80
2023-03-19T02:58:22.685Z,38.35
2023-03-19T03:00:49.457Z,38.25
2023-03-19T03:03:17.148Z,38.11
2023-03-19T03:05:43.948Z,38.36
2023-03-19T03:08:11.026Z,38.04
2023-03-19T03:10:37.846Z,38.11
2023-03-19T03:13:05.635Z,38.19
2023-03-19T03:15:32.371Z,38.13
2023-03-19T03:17:59.438Z,38.33
2023-03-19T03:20:26.186Z,38.03
2023-03-19T03:22:53.718Z,38.18
2023-03-19T03:25:21.211Z,38.38
2023-03-19T03:27:48.326Z,38.23
2023-03-19T03:30:16.230Z,38.41
2023-03-19T03:32:43.339Z,38.30
2023-03-19T03:35:10.295Z,38.39
2023-03-19T03:37:38.093Z,38.30
2023-03-19T03:40:08.377Z,38.27
2023-03-19T03:42:36.810Z,38.38
2023-03-19T03:45:04.092Z,38.40
2023-03-19T03:47:31.469Z,38.26
2023-03-19T03:49:58.214Z,38.49
2023-03-19T03:52:25.361Z,38.30
2023-03-19T03:54:52.089Z,38.06
2023-03-19T03:57:19.312Z,38.22
2023-03-19T03:59:46.026Z,38.23
2023-03-19T04:02:13.106Z,38.32
2023-03-19T04:04:39.962Z,38.55
2023-03-19T04:07:07.381Z,38.40
2023-03-19T04:09:34.184Z,38.25
2023-03-19T04:12:01.270Z,38.57
2023-03-19T04:14:28.170Z,38.47
2023-03-19T04:16:55.205Z,38.53
2023-03-19T04:19:22.244Z,38.19
2023-03-19T04:21:49.280Z,38.36
2023-03-19T04:24:16.109Z,38.43
2023-03-19T04:26:43.160Z,38.55
2023-03-19T04:29:09.923Z,38.59
2023-03-19T04:31:37.030Z,38.62
2023-03-19T04:34:03.822Z,38.70
2023-03-19T04:36:31.008Z,38.36
2023-03-19T04:38:57.793Z,38.56
2023-03-19T04:41:26.062Z,38.42
2023-03-19T04:43:52.802Z,38.50
2023-03-19T04:46:19.878Z,38.43
2023-03-19T04:48:46.657Z,38.79
2023-03-19T04:51:13.756Z,38.57
2023-03-19T04:53:40.658Z,38.58
2023-03-19T04:56:08.083Z,38.46
2023-03-19T04:58:35.280Z,38.41
2023-03-19T05:01:02.442Z,38.51
2023-03-19T05:03:29.315Z,38.81
2023-03-19T05:05:56.395Z,38.64
2023-03-19T05:08:23.204Z,38.47
2023-03-19T05:10:50.543Z,38.53
2023-03-19T05:13:18.098Z,38.87
2023-03-19T05:15:46.427Z,38.67
2023-03-19T05:18:13.333Z,38.38
2023-03-19T05:20:40.590Z,38.60
2023-03-19T05:23:07.323Z,38.82
2023-03-19T05:25:35.322Z,38.91
2023-03-19T05:28:03.121Z,38.91
2023-03-19T05:30:30.439Z,38.69
2023-03-19T05:32:58.433Z,38.73
2023-03-19T05:35:26.842Z,38.92
2023-03-19T05:37:53.998Z,38.88
2023-03-19T05:40:21.286Z,39.02
2023-03-19T05:42:48.075Z,38.60
2023-03-19T05:45:15.577Z,38.82
2023-03-19T05:47:42.311Z,38.98
2023-03-19T05:50:10.001Z,38.88
2023-03-19T05:52:36.709Z,38.93
2023-03-19T05:55:04.696Z,38.85
2023-03-19T05:57:31.663Z,38.84
2023-03-19T05:59:58.741Z,38.74
2023-03-19T06:02:25.548Z,38.92
2023-03-19T06:04:52.674Z,38.99
2023-03-19T06:07:19.421Z,38.98
2023-03-19T06:09:46.747Z,38.79
2023-03-19T06:12:13.494Z,39.40
2023-03-19T06:14:40.787Z,39.13
2023-03-19T06:17:07.632Z,39.27
2023-03-19T06:19:34.852Z,39.04
2023-03-19T06:22:01.711Z,39.41
2023-03-19T06:24:30.491Z,39.34
2023-03-19T06:26:57.260Z,39.04
2023-03-19T06:29:24.353Z,39.17
2023-03-19T06:31:51.332Z,38.94
2023-03-19T06:34:18.744Z,38.70
2023-03-19T06:36:45.547Z,38.82
2023-03-19T06:39:12.870Z,38.42
2023-03-19T06:41:39.746Z,38.56
2023-03-19T06:44:07.430Z,38.22
2023-03-19T06:46:34.162Z,38.62
2023-03-19T06:49:01.232Z,38.38
2023-03-19T06:51:28.083Z,38.21
2023-03-19T06:53:55.323Z,38.37
2023-03-19T06:56:22.198Z,38.21
2023-03-19T06:58:49.248Z,38.10
2023-03-19T07:01:16.571Z,38.31
2023-03-19T07:03:43.701Z,38.22
2023-03-19T07:06:10.549Z,38.15
2023-03-19T07:08:37.597Z,38.03
2023-03-19T07:11:07.458Z,38.36
2023-03-19T07:13:34.692Z,38.43
2023-03-19T07:16:01.723Z,38.30
2023-03-19T07:18:30.321Z,38.32
2023-03-19T07:20:57.107Z,38.17
2023-03-19T07:23:24.245Z,38.02
2023-03-19T07:25:51.145Z,37.87
2023-03-19T07:28:18.170Z,38.05
2023-03-19T07:30:44.974Z,37.85
2023-03-19T07:33:12.849Z,37.72
2023-03-19T07:35:39.763Z,38.12
2023-03-19T07:38:06.855Z,37.80
2023-03-19T07:40:33.762Z,37.64
2023-03-19T07:43:01.115Z,37.67
2023-03-19T07:45:27.963Z,37.67
2023-03-19T07:47:55.244Z,37.80
2023-03-19T07:50:22.029Z,37.53
2023-03-19T07:52:49.532Z,37.59
2023-03-19T07:55:16.354Z,37.70
2023-03-19T07:57:43.508Z,37.66
2023-03-19T08:00:10.978Z,37.64
2023-03-19T08:02:38.113Z,37.42
2023-03-19T08:05:05.248Z,37.47
2023-03-19T08:07:32.502Z,37.60
2023-03-19T08:09:59.289Z,37.59
2023-03-19T08:12:26.370Z,37.33
2023-03-19T08:14:53.213Z,37.33
2023-03-19T08:17:20.291Z,37.27
2023-03-19T08:19:47.118Z,37.04
2023-03-19T08:22:14.233Z,37.21
2023-03-19T08:24:41.027Z,36.98
2023-03-19T08:27:08.243Z,37.14
2023-03-19T08:29:35.223Z,36.92
2023-03-19T08:32:02.411Z,36.83
2023-03-19T08:34:29.201Z,36.86
2023-03-19T08:36:56.384Z,37.04
2023-03-19T08:39:24.019Z,36.75
2023-03-19T08:41:51.345Z,36.44
2023-03-19T08:44:18.105Z,36.43
2023-03-19T08:46:45.667Z,35.88
2023-03-19T08:49:12.456Z,36.09
2023-03-19T08:51:40.542Z,36.37
2023-03-19T08:54:07.372Z,36.25
2023-03-19T08:56:34.429Z,36.18
2023-03-19T08:59:01.196Z,36.39
2023-03-19T09:01:28.307Z,35.91
2023-03-19T09:03:55.154Z,36.16
2023-03-19T09:06:22.291Z,36.18
2023-03-19T09:08:49.080Z,36.23
2023-03-19T09:11:17.432Z,36.19
2023-03-19T09:13:44.273Z,36.31
2023-03-19T09:16:11.477Z,36.18
2023-03-19T09:18:38.453Z,36.00
2023-03-19T09:21:05.978Z,35.80
2023-03-19T09:23:32.857Z,35.83
2023-03-19T09:25:59.920Z,35.64
2023-03-19T09:28:27.195Z,36.02
2023-03-19T09:30:54.421Z,36.00
2023-03-19T09:33:21.624Z,35.98
2023-03-19T09:35:52.782Z,35.72
2023-03-19T09:38:21.033Z,35.81
2023-03-19T09:40:49.520Z,35.98
2023-03-19T09:43:22.439Z,35.65
2023-03-19T09:45:50.236Z,35.86
2023-03-19T09:48:20.082Z,35.64
2023-03-19T09:50:48.012Z,36.19
2023-03-19T09:53:27.155Z,35.70
2023-03-19T09:55:54.441Z,35.47
2023-03-19T09:58:23.568Z,35.77
2023-03-19T10:00:51.302Z,35.67
2023-03-19T10:03:30.478Z,35.48
2023-03-19T10:06:16.486Z,35.37
2023-03-19T10:08:53.397Z,35.10
2023-03-19T10:11:39.167Z,35.34
2023-03-19T10:14:36.256Z,35.48
2023-03-19T10:17:04.532Z,35.44
2023-03-19T10:19:45.700Z,35.19
2023-03-19T10:22:16.806Z,35.27
2023-03-19T10:24:45.210Z,35.01
2023-03-19T10:27:17.455Z,35.04
2023-03-19T10:29:44.236Z,35.28
2023-03-19T10:32:19.035Z,35.20
2023-03-19T10:34:50.480Z,35.19
2023-03-19T10:37:22.191Z,35.02
2023-03-19T10:39:50.705Z,35.10
2023-03-19T10:42:17.863Z,35.16
2023-03-19T10:45:05.526Z,34.76
2023-03-19T10:47:37.892Z,35.03
2023-03-19T10:50:05.064Z,34.98
2023-03-19T10:52:35.802Z,34.76
2023-03-19T10:55:12.797Z,34.77
2023-03-19T10:57:41.818Z,34.82
2023-03-19T11:00:19.385Z,34.87
2023-03-19T11:02:52.642Z,34.79
2023-03-19T11:05:23.059Z,34.40
2023-03-19T11:07:51.387Z,34.39
2023-03-19T11:10:19.055Z,34.58
2023-03-19T11:13:00.693Z,34.17
2023-03-19T11:15:40.121Z,34.14
2023-03-19T11:18:08.364Z,34.31
2023-03-19T11:20:37.142Z,34.34
2023-03-19T11:23:12.642Z,34.15
2023-03-19T11:25:42.031Z,34.68
2023-03-19T11:28:14.142Z,34.66
2023-03-19T11:30:49.043Z,34.50
2023-03-19T11:33:32.729Z,34.50
2023-03-19T11:36:08.610Z,33.99
2023-03-19T11:39:15.641Z,33.97
2023-03-19T11:41:54.330Z,33.87
2023-03-19T11:44:43.650Z,34.26
2023-03-19T11:47:37.780Z,33.61
2023-03-19T11:50:27.278Z,33.73
2023-03-19T11:53:18.130Z,33.79
2023-03-19T11:56:03.571Z,34.07
2023-03-19T11:58:48.613Z,34.19
2023-03-19T12:01:29.552Z,33.43
2023-03-19T12:04:34.161Z,33.80
2023-03-19T12:07:13.212Z,33.23
2023-03-19T12:10:00.954Z,33.42
2023-03-19T12:12:39.979Z,33.16
2023-03-19T12:15:18.879Z,33.27
2023-03-19T12:18:28.140Z,32.92
2023-03-19T12:21:13.724Z,33.18
2023-03-19T12:24:29.042Z,33.65
2023-03-19T12:27:21.092Z,33.35
2023-03-19T12:30:08.331Z,33.37
2023-03-19T12:32:46.395Z,33.29
2023-03-19T12:35:16.687Z,33.62
2023-03-19T12:37:59.790Z,33.71
2023-03-19T12:40:39.887Z,33.40
2023-03-19T12:43:11.012Z,33.73
2023-03-19T12:45:48.689Z,33.48
2023-03-19T12:48:19.358Z,33.60
2023-03-19T12:50:50.006Z,33.30
2023-03-19T12:53:28.837Z,33.55
2023-03-19T12:55:58.670Z,33.53
2023-03-19T12:58:32.497Z,33.21
2023-03-19T13:01:02.203Z,33.25
2023-03-19T13:03:34.252Z,33.67
2023-03-19T13:06:16.085Z,33.31
2023-03-19T13:08:49.888Z,33.32
2023-03-19T13:11:21.646Z,33.63
2023-03-19T13:13:53.356Z,33.64
2023-03-19T13:16:58.724Z,33.06
2023-03-19T13:19:30.256Z,33.36
2023-03-19T13:21:59.724Z,33.59
2023-03-19T13:24:30.318Z,33.31
2023-03-19T13:26:58.662Z,33.28
2023-03-19T13:29:29.572Z,32.76
2023-03-19T13:32:06.106Z,33.03
2023-03-19T13:34:34.590Z,33.35
2023-03-19T13:37:07.132Z,33.35
2023-03-19T13:39:34.371Z,33.10
2023-03-19T13:42:24.260Z,33.18
2023-03-19T13:44:51.718Z,33.33
2023-03-19T13:47:36.425Z,33.00
2023-03-19T13:50:08.590Z,33.08
2023-03-19T13:52:46.285Z,32.68
2023-03-19T13:55:25.796Z,32.79
2023-03-19T13:58:12.312Z,32.71
2023-03-19T14:00:42.956Z,32.19
2023-03-19T14:03:20.910Z,32.92
2023-03-19T14:05:48.774Z,32.56
2023-03-19T14:08:20.288Z,33.10
2023-03-19T14:10:51.352Z,32.83
2023-03-19T14:13:31.655Z,32.94
2023-03-19T14:16:10.140Z,33.15
2023-03-19T14:18:40.366Z,32.37
2023-03-19T14:21:12.877Z,32.60
2023-03-19T14:23:44.124Z,32.75
2023-03-19T14:26:18.114Z,32.21
2023-03-19T14:28:45.221Z,32.41
2023-03-19T14:31:37.120Z,32.41
2023-03-19T14:34:25.806Z,32.34
2023-03-19T14:37:36.243Z,32.11
2023-03-19T14:40:16.147Z,32.09
2023-03-19T14:43:03.429Z,32.59
2023-03-19T14:45:36.646Z,32.48
2023-03-19T14:48:07.260Z,32.92
2023-03-19T14:50:43.405Z,32.60
2023-03-19T14:53:44.939Z,32.68
2023-03-19T14:56:24.135Z,32.54
2023-03-19T14:58:53.334Z,31.83
2023-03-19T15:01:21.027Z,32.44
2023-03-19T15:03:53.280Z,32.85
2023-03-19T15:06:20.377Z,31.99
2023-03-19T15:08:49.531Z,32.45
2023-03-19T15:11:27.717Z,32.52
2023-03-19T15:14:12.009Z,32.62
2023-03-19T15:17:23.770Z,32.02
2023-03-19T15:19:50.887Z,32.05
2023-03-19T15:22:31.832Z,31.64
2023-03-19T15:25:14.907Z,32.12
2023-03-19T15:27:42.321Z,32.28
2023-03-19T15:30:52.421Z,32.59
2023-03-19T15:33:39.570Z,32.40
2023-03-19T15:36:34.421Z,33.40
2023-03-19T15:39:06.837Z,33.15
2023-03-19T15:41:35.951Z,33.23
2023-03-19T15:44:05.242Z,33.03
2023-03-19T15:46:33.412Z,33.41
2023-03-19T15:49:28.804Z,33.44
2023-03-19T15:51:59.081Z,33.46
2023-03-19T15:54:26.404Z,33.29
2023-03-19T15:56:53.183Z,33.50
2023-03-19T15:59:21.556Z,33.57
2023-03-19T16:01:48.750Z,33.63
2023-03-19T16:04:20.813Z,33.56
2023-03-19T16:06:49.161Z,33.82
2023-03-19T16:09:19.196Z,33.70
2023-03-19T16:11:46.341Z,33.90
2023-03-19T16:14:23.165Z,33.68
2023-03-19T16:16:50.095Z,34.30
2023-03-19T16:19:33.389Z,34.34
2023-03-19T16:22:00.470Z,34.20
2023-03-19T16:24:34.353Z,34.76
2023-03-19T16:27:06.577Z,34.17
2023-03-19T16:29:39.002Z,34.76
2023-03-19T16:32:11.905Z,34.79
2023-03-19T16:34:49.225Z,34.87
2023-03-19T16:37:28.653Z,35.01
2023-03-19T16:39:57.048Z,35.56
2023-03-19T16:42:32.969Z,35.45
2023-03-19T16:45:15.710Z,35.42
2023-03-19T16:47:43.150Z,35.72
2023-03-19T16:50:10.962Z,35.75
2023-03-19T16:52:38.314Z,35.80
2023-03-19T16:55:05.880Z,35.76
2023-03-19T16:57:32.647Z,35.97
2023-03-19T16:59:59.725Z,35.75
2023-03-19T17:02:26.497Z,35.93
2023-03-19T17:04:53.729Z,35.98
2023-03-19T17:07:20.666Z,36.01
2023-03-19T17:09:47.738Z,35.88
2023-03-19T17:12:15.476Z,35.88
2023-03-19T17:14:42.779Z,35.96
2023-03-19T17:17:19.316Z,35.97
2023-03-19T17:19:46.852Z,35.91
2023-03-19T17:22:14.466Z,36.05
2023-03-19T17:24:43.312Z,35.82
2023-03-19T17:27:10.586Z,36.09
2023-03-19T17:29:37.699Z,35.63
2023-03-19T17:32:04.656Z,35.83
2023-03-19T17:34:32.111Z,36.15
2023-03-19T17:37:00.395Z,35.79
2023-03-19T17:39:30.007Z,35.87
2023-03-19T17:41:56.866Z,36.03
2023-03-19T17:44:24.170Z,36.04
2023-03-19T17:46:52.262Z,36.50
2023-03-19T17:49:23.405Z,36.09
2023-03-19T17:51:50.888Z,36.39
2023-03-19T17:54:18.029Z,36.05
2023-03-19T17:56:44.849Z,35.81
2023-03-19T17:59:12.033Z,36.48
2023-03-19T18:01:40.234Z,36.06
2023-03-19T18:04:07.527Z,36.47
2023-03-19T18:06:35.574Z,36.51
2023-03-19T18:09:03.159Z,36.20
2023-03-19T18:11:30.002Z,36.34
2023-03-19T18:13:57.033Z,36.52
2023-03-19T18:16:30.720Z,36.41
2023-03-19T18:19:02.057Z,36.42
2023-03-19T18:21:29.194Z,36.50
2023-03-19T18:23:57.389Z,36.56
2023-03-19T18:26:24.881Z,36.62
2023-03-19T18:28:52.127Z,36.71
2023-03-19T18:31:21.413Z,36.79
2023-03-19T18:33:50.405Z,36.88
2023-03-19T18:36:19.548Z,36.80
2023-03-19T18:38:46.692Z,36.58
2023-03-19T18:41:19.924Z,36.89
2023-03-19T18:43:47.206Z,36.88
2023-03-19T18:46:17.033Z,36.73
2023-03-19T18:48:44.227Z,37.04
2023-03-19T18:51:11.482Z,37.11
2023-03-19T18:53:39.981Z,36.81
2023-03-19T18:56:18.441Z,37.06
2023-03-19T18:58:45.696Z,37.19
2023-03-19T19:01:15.380Z,36.55
2023-03-19T19:03:43.317Z,36.85
2023-03-19T19:06:10.218Z,36.60
2023-03-19T19:08:37.472Z,36.74
2023-03-19T19:11:05.600Z,36.99
2023-03-19T19:13:46.203Z,36.68
2023-03-19T19:16:21.918Z,37.13
2023-03-19T19:18:49.376Z,37.08
2023-03-19T19:21:16.396Z,37.21
2023-03-19T19:23:43.715Z,36.96
2023-03-19T19:26:31.145Z,37.08
2023-03-19T19:28:59.626Z,36.71
2023-03-19T19:31:28.269Z,36.98
2023-03-19T19:33:55.733Z,37.15
2023-03-19T19:36:23.527Z,37.00
2023-03-19T19:38:52.115Z,37.00
2023-03-19T19:41:21.952Z,36.96
2023-03-19T19:43:49.159Z,36.86
2023-03-19T19:46:22.607Z,37.02
2023-03-19T19:48:50.030Z,36.88
2023-03-19T19:51:24.865Z,37.24
2023-03-19T19:53:52.392Z,37.14
2023-03-19T19:56:23.732Z,37.27
2023-03-19T19:58:52.579Z,37.16
2023-03-19T20:01:24.330Z,37.16
2023-03-19T20:03:52.760Z,37.25
2023-03-19T20:06:20.523Z,37.21
2023-03-19T20:08:49.473Z,37.19
2023-03-19T20:11:18.336Z,37.19
2023-03-19T20:13:52.085Z,37.05
2023-03-19T20:16:20.234Z,37.21
2023-03-19T20:18:48.519Z,37.18
2023-03-19T20:21:16.352Z,37.37
2023-03-19T20:23:44.909Z,37.03
2023-03-19T20:26:20.992Z,37.19
2023-03-19T20:28:49.130Z,37.21
2023-03-19T20:31:19.931Z,36.99
2023-03-19T20:33:47.957Z,37.02
2023-03-19T20:36:15.963Z,36.99
2023-03-19T20:38:44.083Z,36.92
2023-03-19T20:41:29.643Z,36.88
2023-03-19T20:43:57.849Z,37.04
2023-03-19T20:46:25.754Z,36.82
2023-03-19T20:48:53.699Z,36.70
2023-03-19T20:51:23.131Z,36.72
2023-03-19T20:53:51.884Z,36.68
2023-03-19T20:56:24.705Z,37.10
2023-03-19T20:58:52.711Z,37.03
2023-03-19T21:01:20.286Z,36.68
2023-03-19T21:03:48.081Z,36.84
2023-03-19T21:06:22.994Z,36.94
2023-03-19T21:08:54.597Z,37.03
2023-03-19T21:11:22.658Z,36.84
2023-03-19T21:13:52.630Z,36.96
2023-03-19T21:16:24.502Z,36.83
2023-03-19T21:18:51.955Z,36.95
2023-03-19T21:21:19.374Z,37.00
2023-03-19T21:24:07.202Z,36.89
2023-03-19T21:26:37.894Z,36.98
2023-03-19T21:29:12.037Z,37.23
2023-03-19T21:31:38.916Z,37.29
2023-03-19T21:34:06.340Z,37.25
2023-03-19T21:36:33.424Z,37.23
2023-03-19T21:39:01.366Z,37.31
2023-03-19T21:41:31.827Z,37.28
2023-03-19T21:44:04.084Z,37.17
2023-03-19T21:46:31.169Z,37.36
2023-03-19T21:48:58.595Z,37.49
2023-03-19T21:51:26.206Z,37.56
2023-03-19T21:53:53.307Z,37.34
2023-03-19T21:56:33.361Z,37.58
2023-03-19T21:59:02.276Z,37.16
2023-03-19T22:01:29.153Z,37.35
2023-03-19T22:03:57.020Z,37.49
2023-03-19T22:06:24.453Z,37.28
2023-03-19T22:08:53.920Z,37.62
2023-03-19T22:11:28.738Z,37.00
2023-03-19T22:14:07.543Z,37.38
2023-03-19T22:16:34.665Z,37.46
2023-03-19T22:19:01.899Z,37.35
2023-03-19T22:21:30.651Z,37.41
2023-03-19T22:23:57.833Z,37.56
2023-03-19T22:26:34.998Z,37.40
2023-03-19T22:29:04.644Z,37.27
2023-03-19T22:31:31.470Z,37.52
2023-03-19T22:33:58.864Z,37.59
2023-03-19T22:36:25.615Z,37.47
2023-03-19T22:38:52.737Z,37.58
2023-03-19T22:41:46.467Z,37.51
2023-03-19T22:44:17.584Z,37.69
2023-03-19T22:46:44.523Z,37.89
2023-03-19T22:49:15.766Z,37.76
2023-03-19T22:51:43.643Z,37.80
2023-03-19T22:54:13.692Z,37.88
2023-03-19T22:56:40.694Z,37.67
2023-03-19T22:59:07.743Z,37.78
2023-03-19T23:01:41.787Z,37.81
2023-03-19T23:04:18.183Z,37.92
2023-03-19T23:06:45.362Z,38.00
2023-03-19T23:09:17.213Z,37.84
2023-03-19T23:11:44.141Z,37.90
2023-03-19T23:14:26.126Z,37.97
2023-03-19T23:16:55.913Z,37.95
2023-03-19T23:19:23.848Z,38.18
2023-03-19T23:21:50.776Z,37.93
2023-03-19T23:24:18.745Z,37.74
2023-03-19T23:26:47.188Z,37.97
2023-03-19T23:29:19.183Z,38.07
2023-03-19T23:31:46.304Z,37.80
2023-03-19T23:34:13.844Z,38.26
2023-03-19T23:36:40.700Z,37.96
2023-03-19T23:39:07.828Z,37.76
2023-03-19T23:41:34.637Z,37.68
2023-03-19T23:44:03.049Z,37.96
2023-03-19T23:46:30.148Z,37.97
2023-03-19T23:48:57.299Z,38.02
2023-03-19T23:51:24.050Z,37.82
2023-03-19T23:53:51.431Z,37.93
2023-03-19T23:56:26.049Z,38.32
2023-03-19T23:58:54.265Z,38.10
